createdAt,value
2022-12-23T00:01:27.669Z,13.88
2022-12-23T00:03:58.754Z,12.80
2022-12-23T00:06:27.400Z,14.10
2022-12-23T00:08:58.740Z,13.77
2022-12-23T00:11:27.910Z,13.68
2022-12-23T00:14:20.498Z,14.32
2022-12-23T00:16:50.668Z,12.75
2022-12-23T00:19:18.890Z,11.93
2022-12-23T00:21:48.310Z,15.38
2022-12-23T00:24:16.239Z,12.68
2022-12-23T00:26:44.234Z,14.50
2022-12-23T00:29:12.129Z,12.52
2022-12-23T00:31:40.438Z,12.90
2022-12-23T00:34:09.678Z,14.27
2022-12-23T00:36:38.283Z,13.73
2022-12-23T00:39:24.709Z,13.77
2022-12-23T00:42:11.066Z,16.02
2022-12-23T00:44:38.875Z,15.77
2022-12-23T00:47:06.717Z,16.08
2022-12-23T00:49:43.567Z,15.18
2022-12-23T00:52:15.561Z,16.15
2022-12-23T00:54:43.651Z,14.43
2022-12-23T00:57:11.796Z,15.02
2022-12-23T00:59:39.574Z,18.15
2022-12-23T01:02:26.529Z,19.80
2022-12-23T01:05:13.379Z,20.15
2022-12-23T01:07:42.505Z,18.88
2022-12-23T01:10:10.642Z,20.77
2022-12-23T01:12:39.711Z,19.55
2022-12-23T01:15:08.217Z,22.15
2022-12-23T01:17:36.028Z,20.83
2022-12-23T01:20:04.211Z,21.63
2022-12-23T01:22:32.067Z,21.27
2022-12-23T01:24:59.907Z,18.65
2022-12-23T01:27:27.741Z,19.25
2022-12-23T01:29:55.610Z,17.38
2022-12-23T01:32:23.440Z,17.20
2022-12-23T01:34:51.394Z,19.90
2022-12-23T01:37:19.302Z,22.63
2022-12-23T01:39:47.172Z,20.63
2022-12-23T01:42:35.940Z,19.25
2022-12-23T01:45:29.616Z,18.27
2022-12-23T01:47:59.220Z,18.70
2022-12-23T01:50:35.337Z,21.13
2022-12-23T01:53:17.576Z,19.63
2022-12-23T01:55:54.393Z,18.08
2022-12-23T01:58:33.080Z,17.48
2022-12-23T02:01:20.025Z,16.60
2022-12-23T02:03:52.916Z,16.85
2022-12-23T02:06:44.765Z,15.75
2022-12-23T02:09:25.231Z,16.45
2022-12-23T02:12:30.153Z,16.67
2022-12-23T02:15:40.169Z,18.52
2022-12-23T02:18:26.266Z,16.50
2022-12-23T02:21:16.694Z,16.55
2022-12-23T02:24:05.548Z,16.15
2022-12-23T02:26:42.164Z,18.27
2022-12-23T02:29:22.198Z,16.73
2022-12-23T02:32:21.814Z,13.63
2022-12-23T02:35:18.225Z,13.80
2022-12-23T02:38:13.563Z,16.23
2022-12-23T02:41:00.331Z,14.82
2022-12-23T02:44:15.571Z,14.65
2022-12-23T02:46:49.865Z,13.52
2022-12-23T02:49:32.217Z,13.98
2022-12-23T02:52:04.944Z,13.95
2022-12-23T02:54:37.323Z,14.25
2022-12-23T02:57:08.554Z,14.48
2022-12-23T02:59:43.567Z,13.65
2022-12-23T03:02:11.448Z,13.18
2022-12-23T03:04:40.377Z,12.48
2022-12-23T03:07:20.677Z,14.05
2022-12-23T03:10:11.840Z,13.80
2022-12-23T03:12:58.159Z,14.80
2022-12-23T03:15:55.372Z,13.77
2022-12-23T03:19:04.912Z,18.60
2022-12-23T03:21:40.656Z,14.98
2022-12-23T03:24:36.004Z,15.52
2022-12-23T03:27:10.104Z,16.98
2022-12-23T03:29:57.844Z,19.15
2022-12-23T03:32:30.897Z,15.32
2022-12-23T03:35:01.925Z,17.75
2022-12-23T03:37:32.910Z,17.58
2022-12-23T03:40:11.980Z,16.10
2022-12-23T03:42:42.157Z,17.20
2022-12-23T03:45:38.802Z,15.90
2022-12-23T03:48:21.452Z,18.48
2022-12-23T03:50:54.802Z,19.25
2022-12-23T03:53:31.408Z,19.10
2022-12-23T03:56:13.294Z,21.83
2022-12-23T03:58:54.669Z,18.88
2022-12-23T04:01:43.610Z,19.00
2022-12-23T04:04:16.080Z,17.98
2022-12-23T04:07:00.487Z,22.77
2022-12-23T04:09:29.081Z,22.20
2022-12-23T04:11:58.810Z,22.60
2022-12-23T04:14:26.741Z,20.70
2022-12-23T04:16:58.346Z,19.10
2022-12-23T04:19:26.308Z,19.90
2022-12-23T04:22:00.019Z,19.95
2022-12-23T04:24:27.985Z,24.65
2022-12-23T04:26:55.868Z,24.08
2022-12-23T04:29:23.710Z,22.95
2022-12-23T04:31:51.676Z,23.35
2022-12-23T04:34:19.584Z,25.85
2022-12-23T04:36:47.551Z,25.92
2022-12-23T04:39:15.623Z,22.08
2022-12-23T04:41:43.456Z,26.50
2022-12-23T04:44:11.255Z,26.48
2022-12-23T04:46:39.089Z,26.33
2022-12-23T04:49:06.993Z,27.38
2022-12-23T04:51:34.962Z,28.50
2022-12-23T04:54:02.891Z,28.77
2022-12-23T04:56:30.714Z,28.20
2022-12-23T04:58:58.837Z,28.52
2022-12-23T05:01:26.840Z,31.00
2022-12-23T05:03:54.713Z,34.97
2022-12-23T05:06:22.657Z,32.13
2022-12-23T05:08:50.535Z,34.92
2022-12-23T05:11:18.388Z,36.08
2022-12-23T05:13:46.250Z,36.53
2022-12-23T05:16:14.125Z,35.55
2022-12-23T05:18:42.040Z,35.55
2022-12-23T05:21:10.167Z,32.25
2022-12-23T05:23:38.348Z,33.25
2022-12-23T05:26:06.438Z,29.50
2022-12-23T05:28:34.650Z,33.42
2022-12-23T05:31:04.684Z,31.58
2022-12-23T05:33:33.816Z,32.78
2022-12-23T05:36:02.177Z,32.70
2022-12-23T05:38:30.492Z,36.35
2022-12-23T05:40:58.663Z,36.63
2022-12-23T05:43:26.480Z,34.38
2022-12-23T05:45:54.385Z,37.20
2022-12-23T05:48:22.521Z,37.50
2022-12-23T05:50:52.599Z,34.90
2022-12-23T05:53:21.177Z,36.92
2022-12-23T05:55:49.004Z,39.33
2022-12-23T05:58:17.009Z,36.13
2022-12-23T06:00:44.982Z,37.95
2022-12-23T06:03:12.984Z,38.70
2022-12-23T06:05:43.444Z,38.85
2022-12-23T06:08:11.401Z,38.05
2022-12-23T06:10:39.243Z,41.35
2022-12-23T06:13:07.049Z,38.45
2022-12-23T06:15:34.999Z,39.38
2022-12-23T06:18:02.954Z,45.30
2022-12-23T06:20:30.787Z,40.25
2022-12-23T06:22:58.654Z,43.35
2022-12-23T06:25:26.775Z,39.50
2022-12-23T06:27:54.632Z,42.85
2022-12-23T06:30:22.977Z,39.22
2022-12-23T06:32:51.272Z,42.40
2022-12-23T06:35:19.467Z,37.00
2022-12-23T06:37:47.377Z,43.20
2022-12-23T06:40:15.283Z,31.00
2022-12-23T06:42:43.073Z,35.75
2022-12-23T06:45:11.251Z,37.17
2022-12-23T06:47:39.135Z,30.98
2022-12-23T06:50:07.471Z,26.92
2022-12-23T06:52:35.277Z,25.85
2022-12-23T06:55:03.105Z,28.67
2022-12-23T06:57:30.914Z,31.42
2022-12-23T06:59:58.655Z,28.45
2022-12-23T07:02:26.686Z,26.33
2022-12-23T07:04:54.603Z,27.23
2022-12-23T07:07:22.509Z,29.20
2022-12-23T07:09:50.474Z,29.40
2022-12-23T07:12:18.359Z,26.02
2022-12-23T07:14:46.270Z,29.40
2022-12-23T07:17:14.085Z,27.65
2022-12-23T07:19:41.909Z,32.05
2022-12-23T07:22:12.733Z,30.67
2022-12-23T07:24:40.543Z,30.25
2022-12-23T07:27:08.400Z,28.42
2022-12-23T07:29:36.206Z,27.70
2022-12-23T07:32:04.441Z,28.63
2022-12-23T07:34:32.414Z,31.67
2022-12-23T07:37:00.491Z,27.98
2022-12-23T07:39:28.678Z,27.45
2022-12-23T07:42:16.698Z,28.05
2022-12-23T07:44:44.491Z,25.48
2022-12-23T07:47:12.335Z,25.25
2022-12-23T07:49:40.312Z,24.23
2022-12-23T07:52:08.082Z,27.40
2022-12-23T07:54:35.972Z,28.45
2022-12-23T07:57:06.675Z,26.67
2022-12-23T07:59:34.552Z,28.75
2022-12-23T08:02:02.751Z,26.65
2022-12-23T08:04:30.926Z,24.80
2022-12-23T08:06:58.850Z,27.08
2022-12-23T08:09:26.690Z,30.27
2022-12-23T08:11:54.528Z,30.60
2022-12-23T08:14:23.213Z,31.73
2022-12-23T08:16:51.848Z,30.92
2022-12-23T08:19:19.840Z,28.52
2022-12-23T08:21:47.752Z,27.02
2022-12-23T08:24:15.565Z,34.80
2022-12-23T08:26:43.429Z,37.45
2022-12-23T08:29:11.276Z,31.05
2022-12-23T08:31:39.038Z,35.53
2022-12-23T08:34:06.832Z,33.55
2022-12-23T08:36:36.377Z,35.72
2022-12-23T08:39:08.360Z,34.35
2022-12-23T08:41:44.837Z,33.35
2022-12-23T08:44:13.705Z,33.65
2022-12-23T08:46:42.047Z,36.45
2022-12-23T08:49:10.873Z,39.50
2022-12-23T08:51:39.814Z,35.00
2022-12-23T08:54:07.999Z,32.90
2022-12-23T08:56:39.458Z,36.15
2022-12-23T08:59:16.594Z,42.08
2022-12-23T09:01:47.605Z,30.80
2022-12-23T09:04:15.828Z,34.83
2022-12-23T09:06:43.951Z,33.65
2022-12-23T09:09:14.260Z,39.45
2022-12-23T09:11:42.453Z,46.63
2022-12-23T09:14:11.567Z,40.85
2022-12-23T09:16:39.599Z,38.05
2022-12-23T09:19:07.884Z,42.33
2022-12-23T09:21:36.080Z,43.25
2022-12-23T09:24:04.113Z,47.13
2022-12-23T09:26:32.388Z,41.35
2022-12-23T09:29:00.632Z,45.95
2022-12-23T09:31:36.143Z,46.60
2022-12-23T09:34:05.572Z,48.22
2022-12-23T09:36:33.495Z,42.97
2022-12-23T09:39:01.397Z,44.97
2022-12-23T09:41:35.380Z,45.70
2022-12-23T09:44:27.869Z,45.70
2022-12-23T09:46:59.522Z,50.97
2022-12-23T09:49:28.146Z,49.25
2022-12-23T09:52:01.632Z,44.53
2022-12-23T09:54:41.821Z,49.08
2022-12-23T09:57:14.891Z,48.35
2022-12-23T09:59:58.311Z,48.42
2022-12-23T10:03:03.960Z,43.17
2022-12-23T10:05:58.588Z,48.25
2022-12-23T10:08:38.283Z,48.15
2022-12-23T10:11:16.827Z,49.33
2022-12-23T10:13:52.535Z,45.33
2022-12-23T10:16:24.181Z,51.17
2022-12-23T10:19:13.321Z,52.88
2022-12-23T10:21:50.387Z,52.25
2022-12-23T10:24:25.441Z,54.72
2022-12-23T10:27:02.092Z,48.10
2022-12-23T10:29:34.000Z,49.25
2022-12-23T10:32:08.005Z,52.25
2022-12-23T10:34:52.521Z,54.42
2022-12-23T10:37:43.841Z,51.85
2022-12-23T10:40:26.554Z,55.50
2022-12-23T10:43:12.170Z,53.30
2022-12-23T10:45:58.740Z,46.63
2022-12-23T10:48:45.090Z,50.13
2022-12-23T10:51:22.381Z,54.33
2022-12-23T10:54:02.084Z,51.80
2022-12-23T10:56:30.871Z,53.22
2022-12-23T10:59:01.198Z,50.70
2022-12-23T11:01:31.537Z,53.67
2022-12-23T11:04:22.487Z,50.83
2022-12-23T11:07:18.266Z,49.42
2022-12-23T11:09:50.720Z,51.10
2022-12-23T11:12:40.489Z,49.65
2022-12-23T11:15:32.542Z,56.20
2022-12-23T11:18:12.558Z,51.28
2022-12-23T11:20:44.387Z,47.72
2022-12-23T11:23:29.828Z,47.22
2022-12-23T11:26:13.564Z,35.85
2022-12-23T11:29:04.445Z,39.50
2022-12-23T11:31:35.488Z,32.30
2022-12-23T11:34:18.477Z,34.92
2022-12-23T11:37:01.785Z,35.33
2022-12-23T11:39:36.873Z,29.15
2022-12-23T11:42:23.014Z,30.63
2022-12-23T11:44:54.654Z,32.58
2022-12-23T11:47:41.542Z,30.05
2022-12-23T11:50:26.563Z,28.75
2022-12-23T11:53:13.774Z,26.05
2022-12-23T11:56:10.216Z,26.80
2022-12-23T11:58:47.925Z,25.42
2022-12-23T12:01:22.493Z,27.92
2022-12-23T12:04:05.450Z,25.40
2022-12-23T12:06:33.967Z,23.65
2022-12-23T12:09:04.457Z,24.30
2022-12-23T12:11:38.568Z,21.60
2022-12-23T12:14:08.434Z,20.10
2022-12-23T12:16:48.609Z,20.13
2022-12-23T12:19:35.728Z,20.60
2022-12-23T12:22:11.933Z,22.67
2022-12-23T12:24:48.950Z,20.67
2022-12-23T12:27:19.840Z,22.20
2022-12-23T12:29:52.707Z,22.50
2022-12-23T12:32:46.942Z,20.52
2022-12-23T12:35:49.494Z,25.27
2022-12-23T12:38:28.019Z,28.65
2022-12-23T12:41:08.472Z,30.80
2022-12-23T12:43:42.673Z,32.15
2022-12-23T12:46:28.747Z,31.58
2022-12-23T12:49:15.900Z,29.92
2022-12-23T12:51:51.475Z,34.88
2022-12-23T12:54:30.317Z,31.90
2022-12-23T12:56:59.397Z,36.70
2022-12-23T12:59:32.837Z,33.38
2022-12-23T13:02:15.827Z,39.90
2022-12-23T13:05:03.099Z,33.85
2022-12-23T13:08:04.495Z,34.80
2022-12-23T13:10:52.169Z,39.55
2022-12-23T13:13:42.139Z,37.60
2022-12-23T13:16:21.629Z,34.15
2022-12-23T13:19:14.092Z,37.45
2022-12-23T13:21:51.496Z,36.65
2022-12-23T13:24:50.830Z,38.25
2022-12-23T13:27:28.164Z,39.60
2022-12-23T13:30:06.638Z,39.97
2022-12-23T13:32:56.255Z,36.28
2022-12-23T13:35:24.226Z,39.95
2022-12-23T13:38:10.329Z,35.72
2022-12-23T13:40:42.791Z,34.97
2022-12-23T13:43:14.819Z,35.75
2022-12-23T13:45:44.542Z,36.78
2022-12-23T13:48:30.867Z,35.20
2022-12-23T13:51:47.234Z,36.88
2022-12-23T13:57:41.461Z,36.63
2022-12-23T14:00:18.495Z,37.42
2022-12-23T14:02:49.630Z,35.20
2022-12-23T14:05:32.993Z,43.85
2022-12-23T14:08:21.276Z,46.40
2022-12-23T14:11:00.555Z,44.67
2022-12-23T14:13:32.781Z,37.78
2022-12-23T14:16:32.495Z,33.03
2022-12-23T14:19:24.118Z,33.75
2022-12-23T14:22:30.382Z,30.60
2022-12-23T14:25:35.959Z,31.45
2022-12-23T14:28:46.141Z,27.33
2022-12-23T14:31:43.984Z,33.03
2022-12-23T14:34:22.371Z,41.03
2022-12-23T14:37:16.498Z,35.90
2022-12-23T14:39:44.983Z,33.72
2022-12-23T14:42:49.232Z,33.65
2022-12-23T14:45:42.111Z,27.45
2022-12-23T14:48:41.850Z,27.98
2022-12-23T14:51:09.649Z,28.92
2022-12-23T14:53:52.129Z,28.77
2022-12-23T14:56:20.017Z,30.13
2022-12-23T14:58:59.836Z,29.65
2022-12-23T15:01:38.558Z,26.58
2022-12-23T15:04:27.439Z,28.73
2022-12-23T15:07:00.217Z,31.75
2022-12-23T15:09:30.092Z,30.88
2022-12-23T15:12:04.838Z,30.33
2022-12-23T15:14:38.306Z,30.25
2022-12-23T15:17:38.617Z,30.83
2022-12-23T15:20:15.880Z,34.20
2022-12-23T15:22:46.549Z,31.08
2022-12-23T15:25:24.361Z,38.15
2022-12-23T15:28:00.889Z,33.92
2022-12-23T15:30:34.554Z,35.85
2022-12-23T15:33:16.062Z,27.88
2022-12-23T15:35:54.357Z,29.30
2022-12-23T15:38:27.229Z,31.25
2022-12-23T15:41:18.809Z,29.65
2022-12-23T15:43:46.736Z,29.75
2022-12-23T15:46:26.800Z,29.77
2022-12-23T15:48:56.946Z,33.90
2022-12-23T15:52:05.802Z,28.73
2022-12-23T15:54:38.894Z,28.00
2022-12-23T15:57:06.810Z,33.65
2022-12-23T15:59:39.407Z,28.65
2022-12-23T16:02:49.678Z,29.55
2022-12-23T16:05:05.336Z,35.00
2022-12-23T16:07:41.862Z,33.60
2022-12-23T16:10:18.828Z,30.95
2022-12-23T16:12:51.024Z,27.00
2022-12-23T16:15:28.321Z,29.98
2022-12-23T16:18:21.522Z,30.20
2022-12-23T16:20:53.462Z,31.50
2022-12-23T16:23:22.149Z,29.67
2022-12-23T16:25:52.745Z,33.10
2022-12-23T16:28:26.464Z,28.77
2022-12-23T16:30:56.811Z,31.85
2022-12-23T16:33:30.645Z,30.42
2022-12-23T16:36:14.851Z,31.25
2022-12-23T16:38:43.108Z,28.37
2022-12-23T16:41:11.210Z,29.33
2022-12-23T16:43:39.264Z,32.22
2022-12-23T16:46:08.575Z,28.95
2022-12-23T16:48:41.971Z,34.92
2022-12-23T16:51:14.700Z,31.33
2022-12-23T16:53:42.706Z,31.95
2022-12-23T16:56:15.277Z,38.90
2022-12-23T16:58:44.225Z,38.35
2022-12-23T17:01:23.718Z,43.22
2022-12-23T17:03:52.580Z,32.70
2022-12-23T17:06:21.169Z,37.58
2022-12-23T17:08:53.083Z,33.67
2022-12-23T17:11:24.077Z,36.85
2022-12-23T17:13:52.890Z,37.30
2022-12-23T17:16:24.417Z,39.92
2022-12-23T17:18:53.351Z,44.30
2022-12-23T17:21:30.597Z,38.38
2022-12-23T17:24:23.004Z,42.65
2022-12-23T17:26:51.897Z,37.95
2022-12-23T17:29:19.780Z,46.33
2022-12-23T17:31:48.763Z,37.17
2022-12-23T17:34:18.634Z,42.10
2022-12-23T17:36:50.354Z,41.40
2022-12-23T17:39:22.062Z,43.53
2022-12-23T17:41:50.294Z,42.97
2022-12-23T17:44:19.138Z,41.78
2022-12-23T17:46:47.680Z,40.97
2022-12-23T17:49:15.762Z,42.88
2022-12-23T17:51:44.014Z,40.25
2022-12-23T17:54:23.004Z,36.80
2022-12-23T17:56:51.795Z,39.50
2022-12-23T17:59:26.498Z,42.53
2022-12-23T18:01:54.820Z,36.33
2022-12-23T18:04:23.014Z,43.28
2022-12-23T18:06:51.200Z,41.15
2022-12-23T18:09:21.683Z,45.03
2022-12-23T18:11:50.827Z,41.88
2022-12-23T18:14:29.093Z,45.03
2022-12-23T18:16:58.697Z,39.65
2022-12-23T18:19:26.735Z,36.28
2022-12-23T18:21:54.869Z,38.78
2022-12-23T18:24:22.850Z,40.22
2022-12-23T18:26:50.803Z,43.60
2022-12-23T18:29:18.795Z,35.88
2022-12-23T18:31:51.611Z,35.03
2022-12-23T18:34:21.092Z,36.35
2022-12-23T18:36:51.916Z,33.75
2022-12-23T18:39:20.798Z,36.15
2022-12-23T18:41:51.538Z,37.88
2022-12-23T18:44:21.526Z,34.03
2022-12-23T18:46:50.612Z,34.80
2022-12-23T18:49:19.425Z,33.75
2022-12-23T18:51:47.584Z,32.22
2022-12-23T18:54:16.575Z,32.75
2022-12-23T18:56:45.281Z,28.90
2022-12-23T18:59:22.724Z,29.63
2022-12-23T19:01:53.314Z,26.52
2022-12-23T19:04:21.433Z,26.02
2022-12-23T19:06:49.448Z,28.30
2022-12-23T19:09:20.730Z,26.05
2022-12-23T19:11:51.327Z,23.33
2022-12-23T19:14:19.381Z,26.65
2022-12-23T19:16:51.483Z,30.60
2022-12-23T19:19:21.554Z,24.77
2022-12-23T19:21:49.648Z,17.65
2022-12-23T19:24:17.955Z,23.05
2022-12-23T19:26:45.937Z,21.38
2022-12-23T19:29:14.177Z,25.67
2022-12-23T19:31:42.592Z,22.65
2022-12-23T19:34:14.856Z,25.50
2022-12-23T19:36:44.287Z,26.10
2022-12-23T19:39:16.505Z,26.58
2022-12-23T19:41:45.032Z,29.33
2022-12-23T19:44:13.301Z,27.45
2022-12-23T19:46:41.583Z,32.38
2022-12-23T19:49:14.040Z,29.88
2022-12-23T19:51:45.871Z,38.30
2022-12-23T19:54:14.035Z,33.78
2022-12-23T19:56:42.152Z,24.83
2022-12-23T19:59:10.374Z,39.35
2022-12-23T20:01:38.362Z,36.30
2022-12-23T20:04:06.309Z,29.70
2022-12-23T20:06:39.378Z,22.83
2022-12-23T20:09:09.106Z,43.60
2022-12-23T20:11:40.020Z,37.60
2022-12-23T20:14:08.904Z,32.63
2022-12-23T20:16:37.772Z,36.85
2022-12-23T20:19:06.268Z,46.08
2022-12-23T20:21:35.513Z,36.58
2022-12-23T20:24:04.225Z,41.35
2022-12-23T20:26:33.189Z,36.95
2022-12-23T20:29:01.262Z,32.00
2022-12-23T20:31:32.622Z,36.42
2022-12-23T20:34:01.706Z,36.20
2022-12-23T20:36:32.383Z,35.10
2022-12-23T20:39:02.076Z,39.85
2022-12-23T20:41:31.245Z,34.05
2022-12-23T20:46:47.351Z,33.60
2022-12-23T20:49:15.439Z,37.85
2022-12-23T20:51:43.393Z,41.00
2022-12-23T20:54:11.411Z,24.20
2022-12-23T20:56:39.443Z,34.85
2022-12-23T20:59:07.381Z,28.23
2022-12-23T21:01:38.623Z,19.85
2022-12-23T21:04:12.721Z,34.30
2022-12-23T21:06:40.788Z,34.22
2022-12-23T21:09:12.254Z,30.00
2022-12-23T21:11:43.269Z,29.42
2022-12-23T21:14:12.229Z,25.33
2022-12-23T21:16:40.868Z,27.95
2022-12-23T21:19:13.486Z,29.45
2022-12-23T21:21:41.323Z,32.10
2022-12-23T21:24:10.560Z,25.23
2022-12-23T21:26:38.605Z,26.27
2022-12-23T21:29:08.872Z,22.88
2022-12-23T21:31:40.336Z,25.35
2022-12-23T21:34:10.883Z,21.65
2022-12-23T21:36:39.955Z,13.35
2022-12-23T21:39:12.666Z,19.92
2022-12-23T21:41:43.774Z,21.67
2022-12-23T21:44:16.177Z,19.60
2022-12-23T21:46:44.378Z,22.25
2022-12-23T21:49:13.000Z,23.67
2022-12-23T21:51:41.660Z,23.05
2022-12-23T21:54:11.209Z,15.85
2022-12-23T21:56:40.255Z,16.40
2022-12-23T21:59:13.128Z,14.00
2022-12-23T22:01:42.859Z,15.85
2022-12-23T22:04:10.975Z,20.15
2022-12-23T22:06:43.613Z,13.43
2022-12-23T22:09:15.433Z,18.13
2022-12-23T22:11:44.054Z,19.80
2022-12-23T22:14:14.684Z,16.58
2022-12-23T22:16:42.790Z,13.35
2022-12-23T22:19:12.607Z,13.77
2022-12-23T22:21:42.566Z,18.80
2022-12-23T22:24:10.937Z,20.83
2022-12-23T22:26:40.328Z,16.13
2022-12-23T22:29:08.421Z,18.58
2022-12-23T22:31:46.361Z,15.68
2022-12-23T22:34:19.973Z,10.00
2022-12-23T22:36:48.425Z,13.32
2022-12-23T22:39:21.496Z,19.40
2022-12-23T22:41:51.925Z,19.67
2022-12-23T22:44:20.604Z,18.23
2022-12-23T22:46:48.739Z,16.50
2022-12-23T22:49:17.148Z,14.15
2022-12-23T22:51:45.187Z,16.77
2022-12-23T22:54:13.358Z,9.88
2022-12-23T22:56:41.188Z,14.45
2022-12-23T22:59:24.418Z,20.17
2022-12-23T23:01:53.408Z,13.90
2022-12-23T23:04:22.438Z,16.52
2022-12-23T23:06:50.398Z,20.25
2022-12-23T23:09:20.291Z,17.30
2022-12-23T23:11:49.118Z,17.58
2022-12-23T23:14:17.170Z,23.40
2022-12-23T23:16:45.149Z,16.77
2022-12-23T23:19:15.029Z,18.42
2022-12-23T23:21:42.883Z,18.20
2022-12-23T23:24:11.958Z,19.20
2022-12-23T23:26:39.941Z,20.83
2022-12-23T23:29:07.770Z,23.95
2022-12-23T23:31:43.832Z,18.63
2022-12-23T23:34:13.309Z,16.67
2022-12-23T23:36:41.309Z,21.27
2022-12-23T23:39:10.834Z,20.08
2022-12-23T23:41:38.861Z,21.52
2022-12-23T23:44:06.877Z,11.25
2022-12-23T23:46:35.360Z,22.50
2022-12-23T23:49:03.633Z,17.27
2022-12-23T23:51:31.539Z,20.65
2022-12-23T23:53:59.312Z,14.85
2022-12-23T23:56:32.391Z,22.58
2022-12-23T23:59:04.086Z,17.63
